createdAt,value
2022-10-03T00:02:52.637Z,100.00
2022-10-03T00:13:11.708Z,100.00
2022-10-03T00:23:24.186Z,100.00
2022-10-03T00:33:50.558Z,100.00
2022-10-03T00:44:13.164Z,100.00
2022-10-03T00:54:40.851Z,100.00
2022-10-03T01:04:55.740Z,100.00
2022-10-03T01:15:38.659Z,100.00
2022-10-03T01:25:49.284Z,100.00
2022-10-03T01:35:54.442Z,100.00
2022-10-03T01:46:35.252Z,100.00
2022-10-03T01:56:52.857Z,100.00
2022-10-03T02:07:07.842Z,100.00
2022-10-03T02:17:30.790Z,100.00
2022-10-03T02:28:07.971Z,100.00
2022-10-03T02:38:17.813Z,100.00
2022-10-03T02:48:43.030Z,100.00
2022-10-03T02:59:20.381Z,100.00
2022-10-03T03:09:27.462Z,100.00
2022-10-03T03:19:43.778Z,100.00
2022-10-03T03:30:08.838Z,100.00
2022-10-03T03:40:52.164Z,100.00
2022-10-03T03:51:16.162Z,100.00
2022-10-03T04:01:17.843Z,100.00
2022-10-03T04:11:41.916Z,100.00
2022-10-03T04:22:12.115Z,100.00
2022-10-03T04:32:47.741Z,100.00
2022-10-03T04:43:00.706Z,100.00
2022-10-03T04:53:10.446Z,100.00
2022-10-03T05:03:22.543Z,100.00
2022-10-03T05:13:39.598Z,100.00
2022-10-03T05:24:02.867Z,100.00
2022-10-03T05:34:33.221Z,100.00
2022-10-03T05:44:44.009Z,100.00
2022-10-03T05:54:50.073Z,100.00
2022-10-03T06:05:16.045Z,100.00
2022-10-03T06:15:38.567Z,100.00
2022-10-03T06:26:09.162Z,100.00
2022-10-03T06:36:41.687Z,100.00
2022-10-03T06:47:04.609Z,100.00
2022-10-03T06:57:26.467Z,100.00
2022-10-03T07:07:46.131Z,100.00
2022-10-03T07:17:58.618Z,100.00
2022-10-03T07:28:34.300Z,100.00
2022-10-03T07:39:01.021Z,100.00
2022-10-03T07:49:17.627Z,100.00
2022-10-03T07:59:25.980Z,100.00
2022-10-03T08:09:34.111Z,97.99
2022-10-03T08:20:19.504Z,95.38
2022-10-03T08:30:33.952Z,83.27
2022-10-03T08:41:29.035Z,75.78
2022-10-03T08:51:55.767Z,76.46
2022-10-03T09:02:27.851Z,66.56
2022-10-03T09:13:01.784Z,62.75
2022-10-03T09:23:12.280Z,61.43
2022-10-03T09:33:32.263Z,56.38
2022-10-03T09:44:05.313Z,59.26
2022-10-03T09:54:16.815Z,55.29
2022-10-03T10:04:56.352Z,52.94
2022-10-03T10:14:59.529Z,47.45
2022-10-03T10:25:20.881Z,55.60
2022-10-03T10:35:52.090Z,61.53
2022-10-03T10:46:15.583Z,67.98
2022-10-03T10:56:23.263Z,67.75
2022-10-03T11:06:46.293Z,66.03
2022-10-03T11:17:29.451Z,66.63
2022-10-03T11:27:45.933Z,63.37
2022-10-03T11:37:53.455Z,54.35
2022-10-03T11:48:37.401Z,70.93
2022-10-03T11:58:57.082Z,72.91
2022-10-03T12:09:34.061Z,92.69
2022-10-03T12:19:46.782Z,100.00
2022-10-03T12:29:58.926Z,100.00
2022-10-03T12:40:01.461Z,71.93
2022-10-03T12:50:12.864Z,77.72
2022-10-03T13:00:22.495Z,69.05
2022-10-03T13:10:43.791Z,61.00
2022-10-03T13:21:01.103Z,53.97
2022-10-03T13:31:20.486Z,40.57
2022-10-03T13:41:31.127Z,59.59
2022-10-03T13:51:46.293Z,52.57
2022-10-03T14:02:20.400Z,41.39
2022-10-03T14:12:44.086Z,56.70
2022-10-03T14:23:17.826Z,53.01
2022-10-03T14:33:28.157Z,32.73
2022-10-03T14:43:43.261Z,38.01
2022-10-03T14:54:02.723Z,37.93
2022-10-03T15:04:22.317Z,56.29
2022-10-03T15:14:27.964Z,61.08
2022-10-03T15:24:35.127Z,66.74
2022-10-03T15:34:41.068Z,67.86
2022-10-03T15:44:53.494Z,68.75
2022-10-03T15:55:11.935Z,70.53
2022-10-03T16:05:19.864Z,71.69
2022-10-03T16:15:40.199Z,72.89
2022-10-03T16:26:02.332Z,75.72
2022-10-03T16:36:10.358Z,78.56
2022-10-03T16:46:19.193Z,82.78
2022-10-03T16:56:28.144Z,83.58
2022-10-03T17:06:36.380Z,84.00
2022-10-03T17:16:47.617Z,86.87
2022-10-03T17:26:54.162Z,89.13
2022-10-03T17:37:17.579Z,90.15
2022-10-03T17:47:21.351Z,86.60
2022-10-03T17:57:37.129Z,86.98
2022-10-03T18:07:40.290Z,87.53
2022-10-03T18:17:47.390Z,91.12
2022-10-03T18:28:12.819Z,94.31
2022-10-03T18:38:29.529Z,95.66
2022-10-03T18:49:28.394Z,98.43
2022-10-03T18:59:30.647Z,100.00
2022-10-03T19:09:41.719Z,98.55
2022-10-03T19:19:56.521Z,99.63
2022-10-03T19:30:00.657Z,100.00
2022-10-03T19:40:14.796Z,100.00
2022-10-03T19:50:28.290Z,100.00
2022-10-03T20:00:36.857Z,100.00
2022-10-03T20:10:50.257Z,100.00
2022-10-03T20:20:57.277Z,100.00
2022-10-03T20:31:05.620Z,100.00
2022-10-03T20:41:10.868Z,100.00
2022-10-03T20:51:24.081Z,100.00
2022-10-03T21:01:35.336Z,100.00
2022-10-03T21:11:39.701Z,100.00
2022-10-03T21:21:52.697Z,100.00
2022-10-03T21:32:01.370Z,100.00
2022-10-03T21:42:42.151Z,100.00
2022-10-03T21:53:12.994Z,100.00
2022-10-03T22:03:28.082Z,100.00
2022-10-03T22:13:35.819Z,100.00
2022-10-03T22:23:54.861Z,100.00
2022-10-03T22:34:26.474Z,100.00
2022-10-03T22:44:35.831Z,100.00
2022-10-03T22:54:42.232Z,100.00
2022-10-03T23:04:55.416Z,100.00
2022-10-03T23:15:05.131Z,100.00
2022-10-03T23:25:16.341Z,100.00
2022-10-03T23:35:41.559Z,100.00
2022-10-03T23:45:43.273Z,100.00
2022-10-03T23:55:45.137Z,100.00
